sensor_id;sensor_type;location;lat;lon;timestamp;temperature;humidity
71175;DHT22;58876;51.994;4.472;2024-01-27T00:01:23;6.40;78.75
71175;DHT22;58876;51.994;4.472;2024-01-27T00:03:49;6.35;78.96
71175;DHT22;58876;51.994;4.472;2024-01-27T00:06:15;6.35;78.72
71175;DHT22;58876;51.994;4.472;2024-01-27T00:08:41;6.30;79.21
71175;DHT22;58876;51.994;4.472;2024-01-27T00:11:06;6.43;78.64
71175;DHT22;58876;51.994;4.472;2024-01-27T00:13:32;6.33;78.68
71175;DHT22;58876;51.994;4.472;2024-01-27T00:15:57;6.29;78.82
71175;DHT22;58876;51.994;4.472;2024-01-27T00:18:23;6.42;78.82
71175;DHT22;58876;51.994;4.472;2024-01-27T00:20:49;6.35;78.46
71175;DHT22;58876;51.994;4.472;2024-01-27T00:23:14;6.30;78.84
71175;DHT22;58876;51.994;4.472;2024-01-27T00:25:40;6.37;78.70
71175;DHT22;58876;51.994;4.472;2024-01-27T00:28:05;6.28;78.88
71175;DHT22;58876;51.994;4.472;2024-01-27T00:30:31;6.22;79.07
71175;DHT22;58876;51.994;4.472;2024-01-27T00:32:56;6.19;79.37
71175;DHT22;58876;51.994;4.472;2024-01-27T00:35:22;6.19;79.74
71175;DHT22;58876;51.994;4.472;2024-01-27T00:37:47;6.19;79.34
71175;DHT22;58876;51.994;4.472;2024-01-27T00:40:13;6.11;79.75
71175;DHT22;58876;51.994;4.472;2024-01-27T00:42:38;6.15;79.51
71175;DHT22;58876;51.994;4.472;2024-01-27T00:45:05;6.16;79.50
71175;DHT22;58876;51.994;4.472;2024-01-27T00:47:31;6.24;79.33
71175;DHT22;58876;51.994;4.472;2024-01-27T00:49:56;6.22;79.39
71175;DHT22;58876;51.994;4.472;2024-01-27T00:52:22;6.19;78.79
71175;DHT22;58876;51.994;4.472;2024-01-27T00:54:48;6.18;79.24
71175;DHT22;58876;51.994;4.472;2024-01-27T00:57:13;6.14;79.25
71175;DHT22;58876;51.994;4.472;2024-01-27T00:59:39;6.15;79.08
71175;DHT22;58876;51.994;4.472;2024-01-27T01:02:06;6.18;78.89
71175;DHT22;58876;51.994;4.472;2024-01-27T01:04:32;6.11;78.75
71175;DHT22;58876;51.994;4.472;2024-01-27T01:06:58;6.09;78.78
71175;DHT22;58876;51.994;4.472;2024-01-27T01:09:23;6.08;78.85
71175;DHT22;58876;51.994;4.472;2024-01-27T01:11:49;6.02;79.28
71175;DHT22;58876;51.994;4.472;2024-01-27T01:14:15;6.04;79.20
71175;DHT22;58876;51.994;4.472;2024-01-27T01:16:41;6.09;79.15
71175;DHT22;58876;51.994;4.472;2024-01-27T01:19:06;5.99;79.39
71175;DHT22;58876;51.994;4.472;2024-01-27T01:21:32;6.06;79.51
71175;DHT22;58876;51.994;4.472;2024-01-27T01:23:57;6.02;79.33
71175;DHT22;58876;51.994;4.472;2024-01-27T01:26:24;6.05;79.18
71175;DHT22;58876;51.994;4.472;2024-01-27T01:28:50;6.14;78.83
71175;DHT22;58876;51.994;4.472;2024-01-27T01:31:15;6.08;79.02
71175;DHT22;58876;51.994;4.472;2024-01-27T01:33:42;5.98;79.48
71175;DHT22;58876;51.994;4.472;2024-01-27T01:36:07;6.05;79.24
71175;DHT22;58876;51.994;4.472;2024-01-27T01:38:33;6.14;78.93
71175;DHT22;58876;51.994;4.472;2024-01-27T01:40:58;6.11;78.93
71175;DHT22;58876;51.994;4.472;2024-01-27T01:43:24;6.06;79.01
71175;DHT22;58876;51.994;4.472;2024-01-27T01:45:49;6.08;78.87
71175;DHT22;58876;51.994;4.472;2024-01-27T01:48:16;6.11;78.73
71175;DHT22;58876;51.994;4.472;2024-01-27T01:50:45;6.08;79.02
71175;DHT22;58876;51.994;4.472;2024-01-27T01:53:12;6.09;78.57
71175;DHT22;58876;51.994;4.472;2024-01-27T01:55:38;6.06;78.39
71175;DHT22;58876;51.994;4.472;2024-01-27T01:58:05;5.95;78.72
71175;DHT22;58876;51.994;4.472;2024-01-27T02:00:31;5.94;78.65
71175;DHT22;58876;51.994;4.472;2024-01-27T02:02:56;5.91;78.36
71175;DHT22;58876;51.994;4.472;2024-01-27T02:05:22;5.83;78.75
71175;DHT22;58876;51.994;4.472;2024-01-27T02:07:47;5.78;78.86
71175;DHT22;58876;51.994;4.472;2024-01-27T02:10:14;5.67;79.31
71175;DHT22;58876;51.994;4.472;2024-01-27T02:12:44;5.70;79.53
71175;DHT22;58876;51.994;4.472;2024-01-27T02:15:13;5.73;79.50
71175;DHT22;58876;51.994;4.472;2024-01-27T02:17:40;5.75;79.54
71175;DHT22;58876;51.994;4.472;2024-01-27T02:20:09;5.73;79.82
71175;DHT22;58876;51.994;4.472;2024-01-27T02:22:35;5.75;79.53
71175;DHT22;58876;51.994;4.472;2024-01-27T02:25:02;5.74;79.47
71175;DHT22;58876;51.994;4.472;2024-01-27T02:27:27;5.67;79.46
71175;DHT22;58876;51.994;4.472;2024-01-27T02:29:53;5.70;79.54
71175;DHT22;58876;51.994;4.472;2024-01-27T02:32:18;5.70;79.53
71175;DHT22;58876;51.994;4.472;2024-01-27T02:34:44;5.71;79.60
71175;DHT22;58876;51.994;4.472;2024-01-27T02:37:10;5.67;79.41
71175;DHT22;58876;51.994;4.472;2024-01-27T02:39:36;5.63;79.54
71175;DHT22;58876;51.994;4.472;2024-01-27T02:42:01;5.57;79.38
71175;DHT22;58876;51.994;4.472;2024-01-27T02:44:27;5.48;79.81
71175;DHT22;58876;51.994;4.472;2024-01-27T02:46:53;5.43;80.03
71175;DHT22;58876;51.994;4.472;2024-01-27T02:49:18;5.40;80.43
71175;DHT22;58876;51.994;4.472;2024-01-27T02:51:44;5.32;80.69
71175;DHT22;58876;51.994;4.472;2024-01-27T02:54:10;5.32;80.86
71175;DHT22;58876;51.994;4.472;2024-01-27T02:56:35;5.22;80.84
71175;DHT22;58876;51.994;4.472;2024-01-27T02:59:01;5.20;81.12
71175;DHT22;58876;51.994;4.472;2024-01-27T03:01:26;5.19;81.48
71175;DHT22;58876;51.994;4.472;2024-01-27T03:03:52;5.20;81.34
71175;DHT22;58876;51.994;4.472;2024-01-27T03:06:17;5.18;81.20
71175;DHT22;58876;51.994;4.472;2024-01-27T03:08:43;5.15;81.23
71175;DHT22;58876;51.994;4.472;2024-01-27T03:11:08;5.15;81.22
71175;DHT22;58876;51.994;4.472;2024-01-27T03:13:34;5.12;81.51
71175;DHT22;58876;51.994;4.472;2024-01-27T03:15:59;5.06;81.72
71175;DHT22;58876;51.994;4.472;2024-01-27T03:18:25;5.09;81.50
71175;DHT22;58876;51.994;4.472;2024-01-27T03:20:50;5.13;81.54
71175;DHT22;58876;51.994;4.472;2024-01-27T03:23:16;5.09;81.61
71175;DHT22;58876;51.994;4.472;2024-01-27T03:25:41;5.11;81.61
71175;DHT22;58876;51.994;4.472;2024-01-27T03:28:07;5.08;81.34
71175;DHT22;58876;51.994;4.472;2024-01-27T03:30:32;5.04;81.23
71175;DHT22;58876;51.994;4.472;2024-01-27T03:32:58;5.05;81.16
71175;DHT22;58876;51.994;4.472;2024-01-27T03:35:24;4.98;81.30
71175;DHT22;58876;51.994;4.472;2024-01-27T03:37:49;4.88;81.74
71175;DHT22;58876;51.994;4.472;2024-01-27T03:40:16;4.86;82.23
71175;DHT22;58876;51.994;4.472;2024-01-27T03:42:42;4.76;82.51
71175;DHT22;58876;51.994;4.472;2024-01-27T03:45:08;4.86;82.55
71175;DHT22;58876;51.994;4.472;2024-01-27T03:47:33;4.85;82.72
71175;DHT22;58876;51.994;4.472;2024-01-27T03:49:59;4.75;82.91
71175;DHT22;58876;51.994;4.472;2024-01-27T03:52:24;5.04;82.07
71175;DHT22;58876;51.994;4.472;2024-01-27T03:54:50;5.04;81.93
71175;DHT22;58876;51.994;4.472;2024-01-27T03:57:15;5.04;82.09
71175;DHT22;58876;51.994;4.472;2024-01-27T03:59:41;5.08;81.71
71175;DHT22;58876;51.994;4.472;2024-01-27T04:02:07;5.20;81.59
71175;DHT22;58876;51.994;4.472;2024-01-27T04:04:33;5.11;81.69
71175;DHT22;58876;51.994;4.472;2024-01-27T04:06:58;5.02;81.64
71175;DHT22;58876;51.994;4.472;2024-01-27T04:09:24;5.05;81.79
71175;DHT22;58876;51.994;4.472;2024-01-27T04:11:49;5.00;81.54
71175;DHT22;58876;51.994;4.472;2024-01-27T04:14:14;4.96;82.03
71175;DHT22;58876;51.994;4.472;2024-01-27T04:16:40;5.02;81.89
71175;DHT22;58876;51.994;4.472;2024-01-27T04:19:05;5.11;81.61
71175;DHT22;58876;51.994;4.472;2024-01-27T04:21:31;5.06;81.69
71175;DHT22;58876;51.994;4.472;2024-01-27T04:23:57;5.04;81.82
71175;DHT22;58876;51.994;4.472;2024-01-27T04:26:22;4.84;82.28
71175;DHT22;58876;51.994;4.472;2024-01-27T04:28:47;4.85;82.34
71175;DHT22;58876;51.994;4.472;2024-01-27T04:31:13;4.89;82.51
71175;DHT22;58876;51.994;4.472;2024-01-27T04:33:38;4.79;82.44
71175;DHT22;58876;51.994;4.472;2024-01-27T04:36:04;4.89;82.46
71175;DHT22;58876;51.994;4.472;2024-01-27T04:38:32;4.72;83.24
71175;DHT22;58876;51.994;4.472;2024-01-27T04:40:57;4.88;82.55
71175;DHT22;58876;51.994;4.472;2024-01-27T04:43:23;4.93;82.52
71175;DHT22;58876;51.994;4.472;2024-01-27T04:45:48;5.12;82.00
71175;DHT22;58876;51.994;4.472;2024-01-27T04:48:15;4.96;81.35
71175;DHT22;58876;51.994;4.472;2024-01-27T04:50:40;4.91;81.87
71175;DHT22;58876;51.994;4.472;2024-01-27T04:53:06;4.99;81.66
71175;DHT22;58876;51.994;4.472;2024-01-27T04:55:32;4.88;82.00
71175;DHT22;58876;51.994;4.472;2024-01-27T04:57:57;4.76;81.93
71175;DHT22;58876;51.994;4.472;2024-01-27T05:00:24;4.67;82.67
71175;DHT22;58876;51.994;4.472;2024-01-27T05:02:52;4.58;82.95
71175;DHT22;58876;51.994;4.472;2024-01-27T05:05:17;4.55;82.93
71175;DHT22;58876;51.994;4.472;2024-01-27T05:07:43;4.58;82.87
71175;DHT22;58876;51.994;4.472;2024-01-27T05:10:11;4.58;82.90
71175;DHT22;58876;51.994;4.472;2024-01-27T05:12:38;4.61;82.90
71175;DHT22;58876;51.994;4.472;2024-01-27T05:15:04;4.69;82.64
71175;DHT22;58876;51.994;4.472;2024-01-27T05:17:30;4.67;82.35
71175;DHT22;58876;51.994;4.472;2024-01-27T05:19:55;4.61;82.35
71175;DHT22;58876;51.994;4.472;2024-01-27T05:22:20;4.64;82.67
71175;DHT22;58876;51.994;4.472;2024-01-27T05:24:46;4.61;82.68
71175;DHT22;58876;51.994;4.472;2024-01-27T05:27:11;4.54;83.20
71175;DHT22;58876;51.994;4.472;2024-01-27T05:29:37;4.51;83.34
71175;DHT22;58876;51.994;4.472;2024-01-27T05:32:03;4.53;83.29
71175;DHT22;58876;51.994;4.472;2024-01-27T05:34:28;4.61;83.22
71175;DHT22;58876;51.994;4.472;2024-01-27T05:36:54;4.55;82.80
71175;DHT22;58876;51.994;4.472;2024-01-27T05:39:19;4.48;82.73
71175;DHT22;58876;51.994;4.472;2024-01-27T05:41:45;4.82;81.94
71175;DHT22;58876;51.994;4.472;2024-01-27T05:44:11;4.86;82.08
71175;DHT22;58876;51.994;4.472;2024-01-27T05:46:37;4.71;82.43
71175;DHT22;58876;51.994;4.472;2024-01-27T05:49:02;4.75;82.32
71175;DHT22;58876;51.994;4.472;2024-01-27T05:51:29;4.64;82.37
71175;DHT22;58876;51.994;4.472;2024-01-27T05:53:56;4.67;82.79
71175;DHT22;58876;51.994;4.472;2024-01-27T05:56:21;4.72;82.42
71175;DHT22;58876;51.994;4.472;2024-01-27T05:58:49;4.74;82.53
71175;DHT22;58876;51.994;4.472;2024-01-27T06:01:15;4.81;81.98
71175;DHT22;58876;51.994;4.472;2024-01-27T06:03:42;4.69;81.76
71175;DHT22;58876;51.994;4.472;2024-01-27T06:06:08;4.68;81.72
71175;DHT22;58876;51.994;4.472;2024-01-27T06:08:33;4.67;81.45
71175;DHT22;58876;51.994;4.472;2024-01-27T06:10:59;4.61;81.54
71175;DHT22;58876;51.994;4.472;2024-01-27T06:13:24;4.62;81.73
71175;DHT22;58876;51.994;4.472;2024-01-27T06:15:50;4.60;81.58
71175;DHT22;58876;51.994;4.472;2024-01-27T06:18:16;4.43;81.98
71175;DHT22;58876;51.994;4.472;2024-01-27T06:20:41;4.41;82.35
71175;DHT22;58876;51.994;4.472;2024-01-27T06:23:07;4.47;82.46
71175;DHT22;58876;51.994;4.472;2024-01-27T06:25:34;4.46;82.19
71175;DHT22;58876;51.994;4.472;2024-01-27T06:27:59;4.44;82.09
71175;DHT22;58876;51.994;4.472;2024-01-27T06:30:25;4.46;82.05
71175;DHT22;58876;51.994;4.472;2024-01-27T06:32:51;4.41;82.14
71175;DHT22;58876;51.994;4.472;2024-01-27T06:35:16;4.37;82.49
71175;DHT22;58876;51.994;4.472;2024-01-27T06:37:42;4.34;82.74
71175;DHT22;58876;51.994;4.472;2024-01-27T06:40:08;4.40;82.72
71175;DHT22;58876;51.994;4.472;2024-01-27T06:42:37;4.46;82.67
71175;DHT22;58876;51.994;4.472;2024-01-27T06:45:02;4.46;82.57
71175;DHT22;58876;51.994;4.472;2024-01-27T06:47:29;4.38;82.69
71175;DHT22;58876;51.994;4.472;2024-01-27T06:49:55;4.32;82.48
71175;DHT22;58876;51.994;4.472;2024-01-27T06:52:20;4.33;82.69
71175;DHT22;58876;51.994;4.472;2024-01-27T06:54:46;4.33;82.70
71175;DHT22;58876;51.994;4.472;2024-01-27T06:57:22;4.34;82.87
71175;DHT22;58876;51.994;4.472;2024-01-27T06:59:49;4.34;82.56
71175;DHT22;58876;51.994;4.472;2024-01-27T07:04:49;4.37;82.63
71175;DHT22;58876;51.994;4.472;2024-01-27T07:07:15;4.29;82.42
71175;DHT22;58876;51.994;4.472;2024-01-27T07:09:40;4.26;82.83
71175;DHT22;58876;51.994;4.472;2024-01-27T07:12:06;4.24;82.78
71175;DHT22;58876;51.994;4.472;2024-01-27T07:14:32;4.17;82.98
71175;DHT22;58876;51.994;4.472;2024-01-27T07:16:57;4.14;83.59
71175;DHT22;58876;51.994;4.472;2024-01-27T07:19:23;4.14;83.96
71175;DHT22;58876;51.994;4.472;2024-01-27T07:21:48;4.17;83.89
71175;DHT22;58876;51.994;4.472;2024-01-27T07:24:14;4.21;83.96
71175;DHT22;58876;51.994;4.472;2024-01-27T07:26:39;4.21;83.70
71175;DHT22;58876;51.994;4.472;2024-01-27T07:29:05;4.20;83.53
71175;DHT22;58876;51.994;4.472;2024-01-27T07:31:30;4.11;83.81
71175;DHT22;58876;51.994;4.472;2024-01-27T07:33:56;4.16;83.98
71175;DHT22;58876;51.994;4.472;2024-01-27T07:36:21;4.23;84.17
71175;DHT22;58876;51.994;4.472;2024-01-27T07:38:47;4.34;84.33
71175;DHT22;58876;51.994;4.472;2024-01-27T07:41:12;4.34;83.63
71175;DHT22;58876;51.994;4.472;2024-01-27T07:43:38;4.40;83.66
71175;DHT22;58876;51.994;4.472;2024-01-27T07:46:04;4.37;83.48
71175;DHT22;58876;51.994;4.472;2024-01-27T07:48:29;4.36;83.40
71175;DHT22;58876;51.994;4.472;2024-01-27T07:50:55;4.37;83.35
71175;DHT22;58876;51.994;4.472;2024-01-27T07:53:21;4.27;83.62
71175;DHT22;58876;51.994;4.472;2024-01-27T07:55:47;4.34;83.97
71175;DHT22;58876;51.994;4.472;2024-01-27T07:58:12;4.30;84.14
71175;DHT22;58876;51.994;4.472;2024-01-27T08:00:38;4.37;83.94
71175;DHT22;58876;51.994;4.472;2024-01-27T08:03:03;4.48;83.79
71175;DHT22;58876;51.994;4.472;2024-01-27T08:05:29;4.58;83.35
71175;DHT22;58876;51.994;4.472;2024-01-27T08:07:54;4.60;83.27
71175;DHT22;58876;51.994;4.472;2024-01-27T08:10:20;4.61;83.20
71175;DHT22;58876;51.994;4.472;2024-01-27T08:12:45;4.62;83.09
71175;DHT22;58876;51.994;4.472;2024-01-27T08:15:11;4.74;83.00
71175;DHT22;58876;51.994;4.472;2024-01-27T08:17:37;4.81;82.79
71175;DHT22;58876;51.994;4.472;2024-01-27T08:20:02;4.84;82.46
71175;DHT22;58876;51.994;4.472;2024-01-27T08:22:28;4.88;82.51
71175;DHT22;58876;51.994;4.472;2024-01-27T08:24:54;4.82;82.34
71175;DHT22;58876;51.994;4.472;2024-01-27T08:27:19;4.65;82.85
71175;DHT22;58876;51.994;4.472;2024-01-27T08:29:45;4.71;83.35
71175;DHT22;58876;51.994;4.472;2024-01-27T08:32:10;4.81;83.23
71175;DHT22;58876;51.994;4.472;2024-01-27T08:34:35;4.76;83.25
71175;DHT22;58876;51.994;4.472;2024-01-27T08:37:02;4.86;83.56
71175;DHT22;58876;51.994;4.472;2024-01-27T08:39:27;4.85;83.21
71175;DHT22;58876;51.994;4.472;2024-01-27T08:41:53;4.92;83.27
71175;DHT22;58876;51.994;4.472;2024-01-27T08:44:18;5.08;83.55
71175;DHT22;58876;51.994;4.472;2024-01-27T08:46:44;5.23;83.18
71175;DHT22;58876;51.994;4.472;2024-01-27T08:49:09;5.30;82.62
71175;DHT22;58876;51.994;4.472;2024-01-27T08:51:35;5.33;82.51
71175;DHT22;58876;51.994;4.472;2024-01-27T08:54:00;5.39;82.32
71175;DHT22;58876;51.994;4.472;2024-01-27T08:56:26;5.44;82.57
71175;DHT22;58876;51.994;4.472;2024-01-27T08:58:51;5.61;82.30
71175;DHT22;58876;51.994;4.472;2024-01-27T09:01:18;5.56;81.84
71175;DHT22;58876;51.994;4.472;2024-01-27T09:03:44;5.58;82.01
71175;DHT22;58876;51.994;4.472;2024-01-27T09:06:10;5.56;82.01
71175;DHT22;58876;51.994;4.472;2024-01-27T09:08:35;5.75;82.50
71175;DHT22;58876;51.994;4.472;2024-01-27T09:11:02;5.75;82.07
71175;DHT22;58876;51.994;4.472;2024-01-27T09:13:28;5.70;81.57
71175;DHT22;58876;51.994;4.472;2024-01-27T09:15:53;5.88;81.83
71175;DHT22;58876;51.994;4.472;2024-01-27T09:18:19;5.84;81.54
71175;DHT22;58876;51.994;4.472;2024-01-27T09:20:44;5.88;81.50
71175;DHT22;58876;51.994;4.472;2024-01-27T09:23:10;6.11;81.67
71175;DHT22;58876;51.994;4.472;2024-01-27T09:25:35;6.22;80.75
71175;DHT22;58876;51.994;4.472;2024-01-27T09:28:01;6.22;80.76
71175;DHT22;58876;51.994;4.472;2024-01-27T09:30:27;6.30;80.48
71175;DHT22;58876;51.994;4.472;2024-01-27T09:32:52;6.45;80.80
71175;DHT22;58876;51.994;4.472;2024-01-27T09:35:18;6.40;80.32
71175;DHT22;58876;51.994;4.472;2024-01-27T09:37:43;6.50;80.19
71175;DHT22;58876;51.994;4.472;2024-01-27T09:40:11;6.63;80.22
71175;DHT22;58876;51.994;4.472;2024-01-27T09:42:38;6.77;79.66
71175;DHT22;58876;51.994;4.472;2024-01-27T09:45:06;6.69;79.75
71175;DHT22;58876;51.994;4.472;2024-01-27T09:47:34;6.67;79.70
71175;DHT22;58876;51.994;4.472;2024-01-27T09:50:00;6.79;79.42
71175;DHT22;58876;51.994;4.472;2024-01-27T09:52:26;6.95;79.63
71175;DHT22;58876;51.994;4.472;2024-01-27T09:54:52;7.05;79.09
71175;DHT22;58876;51.994;4.472;2024-01-27T09:57:18;7.35;78.82
71175;DHT22;58876;51.994;4.472;2024-01-27T09:59:47;7.48;77.92
71175;DHT22;58876;51.994;4.472;2024-01-27T10:02:15;7.61;77.66
71175;DHT22;58876;51.994;4.472;2024-01-27T10:04:42;7.51;77.53
71175;DHT22;58876;51.994;4.472;2024-01-27T10:07:08;7.67;77.90
71175;DHT22;58876;51.994;4.472;2024-01-27T10:09:33;7.87;77.00
71175;DHT22;58876;51.994;4.472;2024-01-27T10:12:01;7.70;76.78
71175;DHT22;58876;51.994;4.472;2024-01-27T10:14:40;7.87;76.72
71175;DHT22;58876;51.994;4.472;2024-01-27T10:17:09;7.89;76.26
71175;DHT22;58876;51.994;4.472;2024-01-27T10:19:35;7.91;76.58
71175;DHT22;58876;51.994;4.472;2024-01-27T10:22:00;8.17;76.11
71175;DHT22;58876;51.994;4.472;2024-01-27T10:24:31;8.18;75.46
71175;DHT22;58876;51.994;4.472;2024-01-27T10:27:04;7.90;75.37
71175;DHT22;58876;51.994;4.472;2024-01-27T10:29:30;7.94;76.20
71175;DHT22;58876;51.994;4.472;2024-01-27T10:31:55;8.15;75.73
71175;DHT22;58876;51.994;4.472;2024-01-27T10:34:32;8.35;75.86
71175;DHT22;58876;51.994;4.472;2024-01-27T10:36:57;8.45;74.48
71175;DHT22;58876;51.994;4.472;2024-01-27T10:39:23;8.52;74.21
71175;DHT22;58876;51.994;4.472;2024-01-27T10:41:50;8.42;74.15
71175;DHT22;58876;51.994;4.472;2024-01-27T10:44:17;8.41;74.41
71175;DHT22;58876;51.994;4.472;2024-01-27T10:46:44;8.52;74.02
71175;DHT22;58876;51.994;4.472;2024-01-27T10:49:16;8.52;73.82
71175;DHT22;58876;51.994;4.472;2024-01-27T10:51:54;8.65;73.76
71175;DHT22;58876;51.994;4.472;2024-01-27T10:54:25;8.65;73.91
71175;DHT22;58876;51.994;4.472;2024-01-27T10:56:56;8.97;73.77
71175;DHT22;58876;51.994;4.472;2024-01-27T10:59:22;8.90;72.76
71175;DHT22;58876;51.994;4.472;2024-01-27T11:01:52;8.97;72.92
71175;DHT22;58876;51.994;4.472;2024-01-27T11:04:21;9.30;72.49
71175;DHT22;58876;51.994;4.472;2024-01-27T11:06:48;8.97;71.85
71175;DHT22;58876;51.994;4.472;2024-01-27T11:09:13;8.80;72.49
71175;DHT22;58876;51.994;4.472;2024-01-27T11:11:41;9.12;72.31
71175;DHT22;58876;51.994;4.472;2024-01-27T11:14:08;9.12;71.93
71175;DHT22;58876;51.994;4.472;2024-01-27T11:16:35;8.65;72.32
71175;DHT22;58876;51.994;4.472;2024-01-27T11:19:00;8.46;73.61
71175;DHT22;58876;51.994;4.472;2024-01-27T11:21:26;8.93;73.17
71175;DHT22;58876;51.994;4.472;2024-01-27T11:23:51;8.92;72.56
71175;DHT22;58876;51.994;4.472;2024-01-27T11:26:20;8.96;72.48
71175;DHT22;58876;51.994;4.472;2024-01-27T11:28:46;8.93;72.72
71175;DHT22;58876;51.994;4.472;2024-01-27T11:31:11;8.96;72.37
71175;DHT22;58876;51.994;4.472;2024-01-27T11:33:44;9.16;72.03
71175;DHT22;58876;51.994;4.472;2024-01-27T11:36:19;9.26;71.66
71175;DHT22;58876;51.994;4.472;2024-01-27T11:38:46;8.97;71.63
71175;DHT22;58876;51.994;4.472;2024-01-27T11:41:11;8.92;72.16
71175;DHT22;58876;51.994;4.472;2024-01-27T11:43:37;9.03;72.25
71175;DHT22;58876;51.994;4.472;2024-01-27T11:46:02;9.28;71.96
71175;DHT22;58876;51.994;4.472;2024-01-27T11:48:28;9.26;71.69
71175;DHT22;58876;51.994;4.472;2024-01-27T11:51:10;9.10;72.12
71175;DHT22;58876;51.994;4.472;2024-01-27T11:53:36;9.24;71.52
71175;DHT22;58876;51.994;4.472;2024-01-27T11:56:03;9.35;71.55
71175;DHT22;58876;51.994;4.472;2024-01-27T11:58:29;9.48;70.98
71175;DHT22;58876;51.994;4.472;2024-01-27T12:00:56;9.43;72.34
71175;DHT22;58876;51.994;4.472;2024-01-27T12:03:22;9.52;71.44
71175;DHT22;58876;51.994;4.472;2024-01-27T12:05:48;9.57;71.98
71175;DHT22;58876;51.994;4.472;2024-01-27T12:08:13;9.23;71.13
71175;DHT22;58876;51.994;4.472;2024-01-27T12:10:38;9.04;71.46
71175;DHT22;58876;51.994;4.472;2024-01-27T12:13:04;9.14;71.33
71175;DHT22;58876;51.994;4.472;2024-01-27T12:15:30;8.80;72.20
71175;DHT22;58876;51.994;4.472;2024-01-27T12:17:56;8.92;71.90
71175;DHT22;58876;51.994;4.472;2024-01-27T12:20:25;8.96;71.35
71175;DHT22;58876;51.994;4.472;2024-01-27T12:23:02;8.93;71.82
71175;DHT22;58876;51.994;4.472;2024-01-27T12:25:27;9.17;71.35
71175;DHT22;58876;51.994;4.472;2024-01-27T12:27:53;9.16;71.57
71175;DHT22;58876;51.994;4.472;2024-01-27T12:30:18;8.96;71.05
71175;DHT22;58876;51.994;4.472;2024-01-27T12:32:46;9.02;71.22
71175;DHT22;58876;51.994;4.472;2024-01-27T12:35:12;8.99;71.05
71175;DHT22;58876;51.994;4.472;2024-01-27T12:37:38;9.20;71.70
71175;DHT22;58876;51.994;4.472;2024-01-27T12:40:18;9.26;71.05
71175;DHT22;58876;51.994;4.472;2024-01-27T12:42:44;9.54;70.59
71175;DHT22;58876;51.994;4.472;2024-01-27T12:45:09;9.16;70.14
71175;DHT22;58876;51.994;4.472;2024-01-27T12:47:35;9.07;71.02
71175;DHT22;58876;51.994;4.472;2024-01-27T12:50:00;9.17;71.44
71175;DHT22;58876;51.994;4.472;2024-01-27T12:52:26;9.35;70.05
71175;DHT22;58876;51.994;4.472;2024-01-27T12:54:52;9.35;70.35
71175;DHT22;58876;51.994;4.472;2024-01-27T12:57:19;9.47;69.86
71175;DHT22;58876;51.994;4.472;2024-01-27T12:59:44;9.30;70.23
71175;DHT22;58876;51.994;4.472;2024-01-27T13:02:10;9.24;70.67
71175;DHT22;58876;51.994;4.472;2024-01-27T13:04:35;9.17;70.46
71175;DHT22;58876;51.994;4.472;2024-01-27T13:07:01;9.30;70.18
71175;DHT22;58876;51.994;4.472;2024-01-27T13:09:26;8.99;70.99
71175;DHT22;58876;51.994;4.472;2024-01-27T13:11:52;9.24;71.18
71175;DHT22;58876;51.994;4.472;2024-01-27T13:14:17;9.19;70.57
71175;DHT22;58876;51.994;4.472;2024-01-27T13:16:45;9.47;70.49
71175;DHT22;58876;51.994;4.472;2024-01-27T13:19:11;9.43;69.30
71175;DHT22;58876;51.994;4.472;2024-01-27T13:21:36;9.58;69.46
71175;DHT22;58876;51.994;4.472;2024-01-27T13:24:02;9.38;70.83
71175;DHT22;58876;51.994;4.472;2024-01-27T13:26:28;9.65;69.66
71175;DHT22;58876;51.994;4.472;2024-01-27T13:28:54;9.51;69.38
71175;DHT22;58876;51.994;4.472;2024-01-27T13:31:19;9.41;70.10
71175;DHT22;58876;51.994;4.472;2024-01-27T13:33:44;9.51;69.75
71175;DHT22;58876;51.994;4.472;2024-01-27T13:36:10;9.64;69.84
71175;DHT22;58876;51.994;4.472;2024-01-27T13:38:35;9.59;69.56
71175;DHT22;58876;51.994;4.472;2024-01-27T13:41:01;9.71;69.24
71175;DHT22;58876;51.994;4.472;2024-01-27T13:43:27;9.65;68.55
71175;DHT22;58876;51.994;4.472;2024-01-27T13:45:52;9.70;69.63
71175;DHT22;58876;51.994;4.472;2024-01-27T13:48:20;9.57;69.20
71175;DHT22;58876;51.994;4.472;2024-01-27T13:50:46;9.27;69.38
71175;DHT22;58876;51.994;4.472;2024-01-27T13:53:11;9.12;70.44
71175;DHT22;58876;51.994;4.472;2024-01-27T13:55:37;9.10;70.16
71175;DHT22;58876;51.994;4.472;2024-01-27T13:58:03;8.89;70.83
71175;DHT22;58876;51.994;4.472;2024-01-27T14:00:29;9.26;70.86
71175;DHT22;58876;51.994;4.472;2024-01-27T14:02:55;9.44;70.28
71175;DHT22;58876;51.994;4.472;2024-01-27T14:05:21;9.54;70.18
71175;DHT22;58876;51.994;4.472;2024-01-27T14:07:47;9.33;70.16
71175;DHT22;58876;51.994;4.472;2024-01-27T14:10:12;9.37;71.25
71175;DHT22;58876;51.994;4.472;2024-01-27T14:12:38;9.37;70.62
71175;DHT22;58876;51.994;4.472;2024-01-27T14:15:05;9.40;71.10
71175;DHT22;58876;51.994;4.472;2024-01-27T14:17:35;9.55;70.61
71175;DHT22;58876;51.994;4.472;2024-01-27T14:20:04;9.71;70.25
71175;DHT22;58876;51.994;4.472;2024-01-27T14:22:30;9.71;69.70
71175;DHT22;58876;51.994;4.472;2024-01-27T14:24:56;9.62;70.11
71175;DHT22;58876;51.994;4.472;2024-01-27T14:27:21;9.44;70.14
71175;DHT22;58876;51.994;4.472;2024-01-27T14:29:55;9.52;70.75
71175;DHT22;58876;51.994;4.472;2024-01-27T14:32:22;9.45;70.94
71175;DHT22;58876;51.994;4.472;2024-01-27T14:34:48;9.68;70.84
71175;DHT22;58876;51.994;4.472;2024-01-27T14:37:15;9.88;69.89
71175;DHT22;58876;51.994;4.472;2024-01-27T14:39:48;9.96;69.54
71175;DHT22;58876;51.994;4.472;2024-01-27T14:42:14;9.83;69.39
71175;DHT22;58876;51.994;4.472;2024-01-27T14:44:40;9.72;69.59
71175;DHT22;58876;51.994;4.472;2024-01-27T14:47:08;9.65;69.56
71175;DHT22;58876;51.994;4.472;2024-01-27T14:49:34;9.45;70.18
71175;DHT22;58876;51.994;4.472;2024-01-27T14:52:01;9.77;70.02
71175;DHT22;58876;51.994;4.472;2024-01-27T14:54:27;9.89;69.61
71175;DHT22;58876;51.994;4.472;2024-01-27T14:56:52;10.12;69.09
71175;DHT22;58876;51.994;4.472;2024-01-27T14:59:18;10.13;68.72
71175;DHT22;58876;51.994;4.472;2024-01-27T15:01:44;10.19;68.40
71175;DHT22;58876;51.994;4.472;2024-01-27T15:04:11;10.02;68.37
71175;DHT22;58876;51.994;4.472;2024-01-27T15:06:38;10.06;69.40
71175;DHT22;58876;51.994;4.472;2024-01-27T15:09:03;10.08;69.71
71175;DHT22;58876;51.994;4.472;2024-01-27T15:11:29;9.99;69.82
71175;DHT22;58876;51.994;4.472;2024-01-27T15:13:55;9.98;70.01
71175;DHT22;58876;51.994;4.472;2024-01-27T15:16:20;9.95;70.44
71175;DHT22;58876;51.994;4.472;2024-01-27T15:18:47;9.92;70.15
71175;DHT22;58876;51.994;4.472;2024-01-27T15:21:12;9.82;70.37
71175;DHT22;58876;51.994;4.472;2024-01-27T15:23:38;9.81;70.22
71175;DHT22;58876;51.994;4.472;2024-01-27T15:26:07;9.61;70.89
71175;DHT22;58876;51.994;4.472;2024-01-27T15:28:34;9.52;71.21
71175;DHT22;58876;51.994;4.472;2024-01-27T15:31:00;9.47;71.67
71175;DHT22;58876;51.994;4.472;2024-01-27T15:33:25;9.52;71.75
71175;DHT22;58876;51.994;4.472;2024-01-27T15:35:51;9.61;71.33
71175;DHT22;58876;51.994;4.472;2024-01-27T15:38:16;9.41;71.36
71175;DHT22;58876;51.994;4.472;2024-01-27T15:40:42;9.38;72.02